sensor_id;sensor_type;location;lat;lon;timestamp;temperature;humidity
18779;DHT22;9518;51.720;14.384;2022-12-29T00:00:17;7.90;1.00
18779;DHT22;9518;51.720;14.384;2022-12-29T00:02:44;7.90;1.00
18779;DHT22;9518;51.720;14.384;2022-12-29T00:05:11;7.90;1.00
18779;DHT22;9518;51.720;14.384;2022-12-29T00:07:40;7.90;1.00
18779;DHT22;9518;51.720;14.384;2022-12-29T00:10:07;7.90;1.00
18779;DHT22;9518;51.720;14.384;2022-12-29T00:12:34;7.90;1.00
18779;DHT22;9518;51.720;14.384;2022-12-29T00:15:20;7.80;99.90
18779;DHT22;9518;51.720;14.384;2022-12-29T00:18:05;7.60;1.00
18779;DHT22;9518;51.720;14.384;2022-12-29T00:20:34;7.40;1.00
18779;DHT22;9518;51.720;14.384;2022-12-29T00:23:21;7.20;1.00
18779;DHT22;9518;51.720;14.384;2022-12-29T00:26:03;7.00;1.00
18779;DHT22;9518;51.720;14.384;2022-12-29T00:28:47;6.80;99.90
18779;DHT22;9518;51.720;14.384;2022-12-29T00:31:32;6.70;99.90
18779;DHT22;9518;51.720;14.384;2022-12-29T00:34:16;6.60;99.90
18779;DHT22;9518;51.720;14.384;2022-12-29T00:37:01;6.50;99.90
18779;DHT22;9518;51.720;14.384;2022-12-29T00:39:30;6.50;99.90
18779;DHT22;9518;51.720;14.384;2022-12-29T00:42:15;6.50;99.90
18779;DHT22;9518;51.720;14.384;2022-12-29T00:44:58;6.40;99.90
18779;DHT22;9518;51.720;14.384;2022-12-29T00:47:26;6.40;99.90
18779;DHT22;9518;51.720;14.384;2022-12-29T00:49:55;6.30;99.90
18779;DHT22;9518;51.720;14.384;2022-12-29T00:52:21;6.30;99.90
18779;DHT22;9518;51.720;14.384;2022-12-29T00:54:49;6.30;99.90
18779;DHT22;9518;51.720;14.384;2022-12-29T00:57:17;6.30;99.90
18779;DHT22;9518;51.720;14.384;2022-12-29T00:59:44;6.30;99.90
18779;DHT22;9518;51.720;14.384;2022-12-29T01:02:11;6.30;99.90
18779;DHT22;9518;51.720;14.384;2022-12-29T01:04:38;6.30;99.90
18779;DHT22;9518;51.720;14.384;2022-12-29T01:07:05;6.30;99.90
18779;DHT22;9518;51.720;14.384;2022-12-29T01:09:33;6.30;99.90
18779;DHT22;9518;51.720;14.384;2022-12-29T01:12:15;6.30;99.90
18779;DHT22;9518;51.720;14.384;2022-12-29T01:14:42;6.40;99.90
18779;DHT22;9518;51.720;14.384;2022-12-29T01:17:09;6.40;99.90
18779;DHT22;9518;51.720;14.384;2022-12-29T01:19:36;6.30;99.90
18779;DHT22;9518;51.720;14.384;2022-12-29T01:22:04;6.40;99.90
18779;DHT22;9518;51.720;14.384;2022-12-29T01:24:32;6.40;99.90
18779;DHT22;9518;51.720;14.384;2022-12-29T01:26:59;6.40;99.90
18779;DHT22;9518;51.720;14.384;2022-12-29T01:29:30;6.50;99.90
18779;DHT22;9518;51.720;14.384;2022-12-29T01:31:57;6.50;99.90
18779;DHT22;9518;51.720;14.384;2022-12-29T01:34:24;6.40;99.90
18779;DHT22;9518;51.720;14.384;2022-12-29T01:36:51;6.50;99.90
18779;DHT22;9518;51.720;14.384;2022-12-29T01:39:18;6.50;99.90
18779;DHT22;9518;51.720;14.384;2022-12-29T01:41:46;6.50;99.90
18779;DHT22;9518;51.720;14.384;2022-12-29T01:44:51;6.50;99.90
18779;DHT22;9518;51.720;14.384;2022-12-29T01:47:31;6.60;99.90
18779;DHT22;9518;51.720;14.384;2022-12-29T01:50:04;6.70;99.90
18779;DHT22;9518;51.720;14.384;2022-12-29T01:52:33;6.70;99.90
18779;DHT22;9518;51.720;14.384;2022-12-29T01:55:02;6.70;99.90
18779;DHT22;9518;51.720;14.384;2022-12-29T01:57:34;6.80;99.90
18779;DHT22;9518;51.720;14.384;2022-12-29T02:00:11;6.80;99.90
18779;DHT22;9518;51.720;14.384;2022-12-29T02:02:39;6.80;99.90
18779;DHT22;9518;51.720;14.384;2022-12-29T02:05:14;6.80;99.90
18779;DHT22;9518;51.720;14.384;2022-12-29T02:07:43;6.90;99.90
18779;DHT22;9518;51.720;14.384;2022-12-29T02:10:10;6.90;99.90
18779;DHT22;9518;51.720;14.384;2022-12-29T02:12:38;6.90;99.90
18779;DHT22;9518;51.720;14.384;2022-12-29T02:15:14;6.90;99.90
18779;DHT22;9518;51.720;14.384;2022-12-29T02:17:53;6.90;99.90
18779;DHT22;9518;51.720;14.384;2022-12-29T02:23:49;7.00;99.90
18779;DHT22;9518;51.720;14.384;2022-12-29T02:26:38;7.10;99.90
18779;DHT22;9518;51.720;14.384;2022-12-29T02:29:27;7.10;99.90
18779;DHT22;9518;51.720;14.384;2022-12-29T02:31:59;7.10;99.90
18779;DHT22;9518;51.720;14.384;2022-12-29T02:34:40;7.20;99.90
18779;DHT22;9518;51.720;14.384;2022-12-29T02:37:18;7.30;99.90
18779;DHT22;9518;51.720;14.384;2022-12-29T02:39:52;7.30;99.90
18779;DHT22;9518;51.720;14.384;2022-12-29T02:42:23;7.40;99.90
18779;DHT22;9518;51.720;14.384;2022-12-29T02:44:56;7.40;99.90
18779;DHT22;9518;51.720;14.384;2022-12-29T02:47:33;7.50;99.90
18779;DHT22;9518;51.720;14.384;2022-12-29T02:50:07;7.50;99.90
18779;DHT22;9518;51.720;14.384;2022-12-29T02:52:38;7.60;99.90
18779;DHT22;9518;51.720;14.384;2022-12-29T02:55:11;7.60;99.90
18779;DHT22;9518;51.720;14.384;2022-12-29T02:57:37;7.50;99.90
18779;DHT22;9518;51.720;14.384;2022-12-29T03:00:07;7.60;99.90
18779;DHT22;9518;51.720;14.384;2022-12-29T03:05:49;7.70;99.90
18779;DHT22;9518;51.720;14.384;2022-12-29T03:08:24;7.80;99.90
18779;DHT22;9518;51.720;14.384;2022-12-29T03:11:00;7.80;99.90
18779;DHT22;9518;51.720;14.384;2022-12-29T03:13:34;7.80;99.90
18779;DHT22;9518;51.720;14.384;2022-12-29T03:16:22;7.80;99.90
18779;DHT22;9518;51.720;14.384;2022-12-29T03:19:00;7.90;99.90
18779;DHT22;9518;51.720;14.384;2022-12-29T03:21:34;7.90;99.90
18779;DHT22;9518;51.720;14.384;2022-12-29T03:24:24;7.90;99.90
18779;DHT22;9518;51.720;14.384;2022-12-29T03:26:54;7.90;99.90
18779;DHT22;9518;51.720;14.384;2022-12-29T03:29:22;7.90;99.90
18779;DHT22;9518;51.720;14.384;2022-12-29T03:31:52;8.00;99.90
18779;DHT22;9518;51.720;14.384;2022-12-29T03:34:22;7.90;99.90
18779;DHT22;9518;51.720;14.384;2022-12-29T03:36:53;8.00;99.90
18779;DHT22;9518;51.720;14.384;2022-12-29T03:39:23;8.00;99.90
18779;DHT22;9518;51.720;14.384;2022-12-29T03:41:53;7.90;99.90
18779;DHT22;9518;51.720;14.384;2022-12-29T03:44:22;8.00;99.90
18779;DHT22;9518;51.720;14.384;2022-12-29T03:46:57;7.90;99.90
18779;DHT22;9518;51.720;14.384;2022-12-29T03:49:26;7.90;99.90
18779;DHT22;9518;51.720;14.384;2022-12-29T03:51:53;8.00;99.90
18779;DHT22;9518;51.720;14.384;2022-12-29T03:54:21;8.10;99.90
18779;DHT22;9518;51.720;14.384;2022-12-29T03:56:48;8.10;99.90
18779;DHT22;9518;51.720;14.384;2022-12-29T03:59:15;8.00;99.90
18779;DHT22;9518;51.720;14.384;2022-12-29T04:01:42;8.10;99.90
18779;DHT22;9518;51.720;14.384;2022-12-29T04:04:09;8.10;99.90
18779;DHT22;9518;51.720;14.384;2022-12-29T04:06:38;8.10;99.90
18779;DHT22;9518;51.720;14.384;2022-12-29T04:09:06;8.10;99.90
18779;DHT22;9518;51.720;14.384;2022-12-29T04:11:33;8.20;99.90
18779;DHT22;9518;51.720;14.384;2022-12-29T04:14:01;8.20;99.90
18779;DHT22;9518;51.720;14.384;2022-12-29T04:16:28;8.20;99.90
18779;DHT22;9518;51.720;14.384;2022-12-29T04:18:55;8.20;99.90
18779;DHT22;9518;51.720;14.384;2022-12-29T04:21:22;8.30;99.90
18779;DHT22;9518;51.720;14.384;2022-12-29T04:23:51;8.30;99.90
18779;DHT22;9518;51.720;14.384;2022-12-29T04:26:18;8.20;99.90
18779;DHT22;9518;51.720;14.384;2022-12-29T04:28:45;8.20;99.90
18779;DHT22;9518;51.720;14.384;2022-12-29T04:31:12;8.20;99.90
18779;DHT22;9518;51.720;14.384;2022-12-29T04:33:39;8.20;99.90
18779;DHT22;9518;51.720;14.384;2022-12-29T04:36:06;8.20;99.90
18779;DHT22;9518;51.720;14.384;2022-12-29T04:38:33;8.20;99.90
18779;DHT22;9518;51.720;14.384;2022-12-29T04:41:03;8.30;99.90
18779;DHT22;9518;51.720;14.384;2022-12-29T04:43:30;8.40;99.90
18779;DHT22;9518;51.720;14.384;2022-12-29T04:46:00;8.40;99.90
18779;DHT22;9518;51.720;14.384;2022-12-29T04:48:28;8.40;99.90
18779;DHT22;9518;51.720;14.384;2022-12-29T04:50:55;8.40;99.90
18779;DHT22;9518;51.720;14.384;2022-12-29T04:53:22;8.40;99.90
18779;DHT22;9518;51.720;14.384;2022-12-29T04:55:50;8.40;99.90
18779;DHT22;9518;51.720;14.384;2022-12-29T04:58:20;8.40;99.90
18779;DHT22;9518;51.720;14.384;2022-12-29T05:00:48;8.40;99.90
18779;DHT22;9518;51.720;14.384;2022-12-29T05:03:15;8.50;99.90
18779;DHT22;9518;51.720;14.384;2022-12-29T05:05:42;8.40;99.90
18779;DHT22;9518;51.720;14.384;2022-12-29T05:08:09;8.50;99.90
18779;DHT22;9518;51.720;14.384;2022-12-29T05:10:37;8.50;99.90
18779;DHT22;9518;51.720;14.384;2022-12-29T05:13:04;8.50;99.90
18779;DHT22;9518;51.720;14.384;2022-12-29T05:15:32;8.50;99.90
18779;DHT22;9518;51.720;14.384;2022-12-29T05:17:59;8.50;99.90
18779;DHT22;9518;51.720;14.384;2022-12-29T05:20:27;8.50;99.90
18779;DHT22;9518;51.720;14.384;2022-12-29T05:22:55;8.60;99.90
18779;DHT22;9518;51.720;14.384;2022-12-29T05:25:22;8.50;99.90
18779;DHT22;9518;51.720;14.384;2022-12-29T05:27:51;8.60;99.90
18779;DHT22;9518;51.720;14.384;2022-12-29T05:30:18;8.50;99.90
18779;DHT22;9518;51.720;14.384;2022-12-29T05:32:47;8.50;99.90
18779;DHT22;9518;51.720;14.384;2022-12-29T05:35:14;8.50;99.90
18779;DHT22;9518;51.720;14.384;2022-12-29T05:37:42;8.40;99.90
18779;DHT22;9518;51.720;14.384;2022-12-29T05:40:10;8.30;99.90
18779;DHT22;9518;51.720;14.384;2022-12-29T05:42:39;8.10;99.90
18779;DHT22;9518;51.720;14.384;2022-12-29T05:45:08;8.00;99.90
18779;DHT22;9518;51.720;14.384;2022-12-29T05:47:35;8.00;99.90
18779;DHT22;9518;51.720;14.384;2022-12-29T05:50:04;8.00;99.90
18779;DHT22;9518;51.720;14.384;2022-12-29T05:52:31;7.90;99.90
18779;DHT22;9518;51.720;14.384;2022-12-29T05:54:59;7.90;99.90
18779;DHT22;9518;51.720;14.384;2022-12-29T05:57:25;7.90;99.90
18779;DHT22;9518;51.720;14.384;2022-12-29T05:59:54;7.90;99.90
18779;DHT22;9518;51.720;14.384;2022-12-29T06:02:21;7.90;99.90
18779;DHT22;9518;51.720;14.384;2022-12-29T06:04:48;7.90;99.90
18779;DHT22;9518;51.720;14.384;2022-12-29T06:07:18;7.90;99.90
18779;DHT22;9518;51.720;14.384;2022-12-29T06:09:45;7.90;99.90
18779;DHT22;9518;51.720;14.384;2022-12-29T06:12:12;7.90;99.90
18779;DHT22;9518;51.720;14.384;2022-12-29T06:14:40;7.90;99.90
18779;DHT22;9518;51.720;14.384;2022-12-29T06:17:07;7.80;99.90
18779;DHT22;9518;51.720;14.384;2022-12-29T06:19:34;7.80;99.90
18779;DHT22;9518;51.720;14.384;2022-12-29T06:22:02;7.80;99.90
18779;DHT22;9518;51.720;14.384;2022-12-29T06:24:30;7.90;99.90
18779;DHT22;9518;51.720;14.384;2022-12-29T06:26:58;7.90;99.90
18779;DHT22;9518;51.720;14.384;2022-12-29T06:29:25;8.00;99.90
18779;DHT22;9518;51.720;14.384;2022-12-29T06:31:53;8.00;99.90
18779;DHT22;9518;51.720;14.384;2022-12-29T06:34:23;8.00;99.90
18779;DHT22;9518;51.720;14.384;2022-12-29T06:36:50;8.10;99.90
18779;DHT22;9518;51.720;14.384;2022-12-29T06:39:17;8.10;99.90
18779;DHT22;9518;51.720;14.384;2022-12-29T06:41:46;8.20;99.90
18779;DHT22;9518;51.720;14.384;2022-12-29T06:44:15;8.20;99.90
18779;DHT22;9518;51.720;14.384;2022-12-29T06:46:42;8.20;99.90
18779;DHT22;9518;51.720;14.384;2022-12-29T06:49:10;8.20;99.90
18779;DHT22;9518;51.720;14.384;2022-12-29T06:51:37;8.30;99.90
18779;DHT22;9518;51.720;14.384;2022-12-29T06:54:04;8.20;99.90
18779;DHT22;9518;51.720;14.384;2022-12-29T06:56:31;8.20;99.90
18779;DHT22;9518;51.720;14.384;2022-12-29T06:59:00;8.30;99.90
18779;DHT22;9518;51.720;14.384;2022-12-29T07:01:27;8.20;99.90
18779;DHT22;9518;51.720;14.384;2022-12-29T07:03:55;8.10;99.90
18779;DHT22;9518;51.720;14.384;2022-12-29T07:06:23;8.10;99.90
18779;DHT22;9518;51.720;14.384;2022-12-29T07:08:50;8.00;99.90
18779;DHT22;9518;51.720;14.384;2022-12-29T07:11:20;8.00;99.90
18779;DHT22;9518;51.720;14.384;2022-12-29T07:13:48;8.00;99.90
18779;DHT22;9518;51.720;14.384;2022-12-29T07:16:26;8.00;99.90
18779;DHT22;9518;51.720;14.384;2022-12-29T07:18:55;8.00;99.90
18779;DHT22;9518;51.720;14.384;2022-12-29T07:21:39;8.00;99.90
18779;DHT22;9518;51.720;14.384;2022-12-29T07:24:07;8.00;99.90
18779;DHT22;9518;51.720;14.384;2022-12-29T07:26:37;7.90;99.90
18779;DHT22;9518;51.720;14.384;2022-12-29T07:29:04;7.90;99.90
18779;DHT22;9518;51.720;14.384;2022-12-29T07:31:33;7.90;99.90
18779;DHT22;9518;51.720;14.384;2022-12-29T07:34:00;7.90;99.90
18779;DHT22;9518;51.720;14.384;2022-12-29T07:36:27;7.90;99.90
18779;DHT22;9518;51.720;14.384;2022-12-29T07:38:54;7.90;99.90
18779;DHT22;9518;51.720;14.384;2022-12-29T07:41:21;7.90;99.90
18779;DHT22;9518;51.720;14.384;2022-12-29T07:43:49;8.00;99.90
18779;DHT22;9518;51.720;14.384;2022-12-29T07:46:16;8.00;99.90
18779;DHT22;9518;51.720;14.384;2022-12-29T07:48:45;8.00;99.90
18779;DHT22;9518;51.720;14.384;2022-12-29T07:51:13;8.10;99.90
18779;DHT22;9518;51.720;14.384;2022-12-29T07:53:40;8.10;99.90
18779;DHT22;9518;51.720;14.384;2022-12-29T07:56:07;8.10;99.90
18779;DHT22;9518;51.720;14.384;2022-12-29T07:58:34;8.20;99.90
18779;DHT22;9518;51.720;14.384;2022-12-29T08:01:01;8.20;99.90
18779;DHT22;9518;51.720;14.384;2022-12-29T08:03:28;8.20;99.90
18779;DHT22;9518;51.720;14.384;2022-12-29T08:05:58;8.30;99.90
18779;DHT22;9518;51.720;14.384;2022-12-29T08:08:25;8.30;99.90
18779;DHT22;9518;51.720;14.384;2022-12-29T08:10:52;8.40;99.90
18779;DHT22;9518;51.720;14.384;2022-12-29T08:13:19;8.40;99.90
18779;DHT22;9518;51.720;14.384;2022-12-29T08:15:48;8.40;99.90
18779;DHT22;9518;51.720;14.384;2022-12-29T08:18:15;8.50;99.90
18779;DHT22;9518;51.720;14.384;2022-12-29T08:20:42;8.50;99.90
18779;DHT22;9518;51.720;14.384;2022-12-29T08:23:10;8.50;99.90
18779;DHT22;9518;51.720;14.384;2022-12-29T08:25:38;8.50;99.90
18779;DHT22;9518;51.720;14.384;2022-12-29T08:28:05;8.70;99.90
18779;DHT22;9518;51.720;14.384;2022-12-29T08:30:32;8.70;99.90
18779;DHT22;9518;51.720;14.384;2022-12-29T08:32:59;8.70;99.40
18779;DHT22;9518;51.720;14.384;2022-12-29T08:35:27;8.70;99.90
18779;DHT22;9518;51.720;14.384;2022-12-29T08:37:54;8.60;99.90
18779;DHT22;9518;51.720;14.384;2022-12-29T08:40:22;8.70;99.90
18779;DHT22;9518;51.720;14.384;2022-12-29T08:42:50;8.70;99.90
18779;DHT22;9518;51.720;14.384;2022-12-29T08:45:17;8.70;99.90
18779;DHT22;9518;51.720;14.384;2022-12-29T08:47:44;8.70;99.90
18779;DHT22;9518;51.720;14.384;2022-12-29T08:50:12;8.70;99.90
18779;DHT22;9518;51.720;14.384;2022-12-29T08:52:40;8.80;99.90
18779;DHT22;9518;51.720;14.384;2022-12-29T08:55:10;8.90;91.40
18779;DHT22;9518;51.720;14.384;2022-12-29T08:57:39;8.90;86.50
18779;DHT22;9518;51.720;14.384;2022-12-29T09:00:09;8.90;89.30
18779;DHT22;9518;51.720;14.384;2022-12-29T09:02:37;8.90;83.20
18779;DHT22;9518;51.720;14.384;2022-12-29T09:05:04;9.00;99.90
18779;DHT22;9518;51.720;14.384;2022-12-29T09:07:31;8.90;99.90
18779;DHT22;9518;51.720;14.384;2022-12-29T09:09:58;9.00;99.90
18779;DHT22;9518;51.720;14.384;2022-12-29T09:12:25;9.00;99.90
18779;DHT22;9518;51.720;14.384;2022-12-29T09:14:54;9.10;83.30
18779;DHT22;9518;51.720;14.384;2022-12-29T09:17:21;9.20;74.20
18779;DHT22;9518;51.720;14.384;2022-12-29T09:20:05;9.20;1.00
18779;DHT22;9518;51.720;14.384;2022-12-29T09:22:33;9.40;1.00
18779;DHT22;9518;51.720;14.384;2022-12-29T09:25:00;9.50;1.00
18779;DHT22;9518;51.720;14.384;2022-12-29T09:27:27;9.60;1.00
18779;DHT22;9518;51.720;14.384;2022-12-29T09:29:57;9.70;99.90
18779;DHT22;9518;51.720;14.384;2022-12-29T09:32:24;9.80;1.00
18779;DHT22;9518;51.720;14.384;2022-12-29T09:34:51;9.90;1.00
18779;DHT22;9518;51.720;14.384;2022-12-29T09:37:18;9.90;1.00
18779;DHT22;9518;51.720;14.384;2022-12-29T09:39:45;10.00;1.00
18779;DHT22;9518;51.720;14.384;2022-12-29T09:42:16;10.00;1.00
18779;DHT22;9518;51.720;14.384;2022-12-29T09:44:55;10.10;1.00
18779;DHT22;9518;51.720;14.384;2022-12-29T09:47:25;10.20;99.90
18779;DHT22;9518;51.720;14.384;2022-12-29T09:49:55;10.30;99.90
18779;DHT22;9518;51.720;14.384;2022-12-29T09:52:23;10.30;1.00
18779;DHT22;9518;51.720;14.384;2022-12-29T09:54:56;10.30;1.00
18779;DHT22;9518;51.720;14.384;2022-12-29T09:57:26;10.30;1.00
18779;DHT22;9518;51.720;14.384;2022-12-29T09:59:57;10.30;99.90
18779;DHT22;9518;51.720;14.384;2022-12-29T10:02:37;10.30;1.00
18779;DHT22;9518;51.720;14.384;2022-12-29T10:05:27;10.20;99.90
18779;DHT22;9518;51.720;14.384;2022-12-29T10:08:10;10.20;1.00
18779;DHT22;9518;51.720;14.384;2022-12-29T10:10:48;10.40;1.00
18779;DHT22;9518;51.720;14.384;2022-12-29T10:13:28;10.60;99.90
18779;DHT22;9518;51.720;14.384;2022-12-29T10:16:02;10.80;1.00
18779;DHT22;9518;51.720;14.384;2022-12-29T10:18:48;10.90;1.00
18779;DHT22;9518;51.720;14.384;2022-12-29T10:21:29;10.80;1.00
18779;DHT22;9518;51.720;14.384;2022-12-29T10:24:03;10.90;1.00
18779;DHT22;9518;51.720;14.384;2022-12-29T10:26:35;10.90;1.00
18779;DHT22;9518;51.720;14.384;2022-12-29T10:29:04;10.90;1.00
18779;DHT22;9518;51.720;14.384;2022-12-29T10:31:35;11.10;1.00
18779;DHT22;9518;51.720;14.384;2022-12-29T10:34:10;11.30;1.00
18779;DHT22;9518;51.720;14.384;2022-12-29T10:36:44;11.40;1.00
18779;DHT22;9518;51.720;14.384;2022-12-29T10:39:18;11.30;1.00
18779;DHT22;9518;51.720;14.384;2022-12-29T10:41:50;11.40;1.00
18779;DHT22;9518;51.720;14.384;2022-12-29T10:44:19;11.30;1.00
18779;DHT22;9518;51.720;14.384;2022-12-29T10:46:56;11.30;1.00
18779;DHT22;9518;51.720;14.384;2022-12-29T10:49:27;11.30;1.00
18779;DHT22;9518;51.720;14.384;2022-12-29T10:51:58;11.40;1.00
18779;DHT22;9518;51.720;14.384;2022-12-29T10:54:29;11.50;1.00
18779;DHT22;9518;51.720;14.384;2022-12-29T10:57:01;11.70;1.00
18779;DHT22;9518;51.720;14.384;2022-12-29T10:59:31;11.70;1.00
18779;DHT22;9518;51.720;14.384;2022-12-29T11:05:02;11.80;1.00
18779;DHT22;9518;51.720;14.384;2022-12-29T11:07:35;11.90;1.00
18779;DHT22;9518;51.720;14.384;2022-12-29T11:10:21;12.10;1.00
18779;DHT22;9518;51.720;14.384;2022-12-29T11:12:56;12.30;99.90
18779;DHT22;9518;51.720;14.384;2022-12-29T11:15:24;12.40;99.90
18779;DHT22;9518;51.720;14.384;2022-12-29T11:17:53;12.50;99.90
18779;DHT22;9518;51.720;14.384;2022-12-29T11:20:34;12.60;99.90
18779;DHT22;9518;51.720;14.384;2022-12-29T11:23:05;12.70;99.90
18779;DHT22;9518;51.720;14.384;2022-12-29T11:26:05;12.80;99.90
18779;DHT22;9518;51.720;14.384;2022-12-29T11:28:32;12.90;99.90
18779;DHT22;9518;51.720;14.384;2022-12-29T11:30:59;12.90;99.90
18779;DHT22;9518;51.720;14.384;2022-12-29T11:33:27;13.10;99.90
18779;DHT22;9518;51.720;14.384;2022-12-29T11:35:58;13.30;99.90
18779;DHT22;9518;51.720;14.384;2022-12-29T11:38:34;13.50;99.90
18779;DHT22;9518;51.720;14.384;2022-12-29T11:41:04;13.50;99.90
18779;DHT22;9518;51.720;14.384;2022-12-29T11:43:34;13.60;99.90
18779;DHT22;9518;51.720;14.384;2022-12-29T11:46:04;13.60;99.90
18779;DHT22;9518;51.720;14.384;2022-12-29T11:48:37;13.60;99.90
18779;DHT22;9518;51.720;14.384;2022-12-29T11:51:08;13.40;99.90
18779;DHT22;9518;51.720;14.384;2022-12-29T11:53:39;13.40;99.90
18779;DHT22;9518;51.720;14.384;2022-12-29T11:56:09;13.50;99.90
18779;DHT22;9518;51.720;14.384;2022-12-29T11:58:38;13.60;99.90
18779;DHT22;9518;51.720;14.384;2022-12-29T12:01:09;13.70;99.90
18779;DHT22;9518;51.720;14.384;2022-12-29T12:03:42;13.70;99.90
18779;DHT22;9518;51.720;14.384;2022-12-29T12:06:16;13.70;99.90
18779;DHT22;9518;51.720;14.384;2022-12-29T12:08:50;13.70;99.90
18779;DHT22;9518;51.720;14.384;2022-12-29T12:11:23;13.70;99.90
18779;DHT22;9518;51.720;14.384;2022-12-29T12:13:57;13.70;99.90
18779;DHT22;9518;51.720;14.384;2022-12-29T12:16:28;13.60;99.90
18779;DHT22;9518;51.720;14.384;2022-12-29T12:19:03;13.60;99.90
18779;DHT22;9518;51.720;14.384;2022-12-29T12:21:36;13.60;99.90
18779;DHT22;9518;51.720;14.384;2022-12-29T12:24:21;13.50;99.90
18779;DHT22;9518;51.720;14.384;2022-12-29T12:26:58;13.50;99.90
18779;DHT22;9518;51.720;14.384;2022-12-29T12:29:33;13.50;99.90
18779;DHT22;9518;51.720;14.384;2022-12-29T12:32:06;13.50;99.90
18779;DHT22;9518;51.720;14.384;2022-12-29T12:34:39;13.60;99.90
18779;DHT22;9518;51.720;14.384;2022-12-29T12:37:43;13.60;99.90
18779;DHT22;9518;51.720;14.384;2022-12-29T12:40:27;13.60;99.90
18779;DHT22;9518;51.720;14.384;2022-12-29T12:43:18;13.60;99.90
18779;DHT22;9518;51.720;14.384;2022-12-29T12:45:54;13.70;99.90
18779;DHT22;9518;51.720;14.384;2022-12-29T12:51:20;13.60;99.90
18779;DHT22;9518;51.720;14.384;2022-12-29T12:54:05;13.70;99.90
18779;DHT22;9518;51.720;14.384;2022-12-29T12:56:55;13.60;99.90
18779;DHT22;9518;51.720;14.384;2022-12-29T12:59:36;13.50;99.90
18779;DHT22;9518;51.720;14.384;2022-12-29T13:02:21;13.40;99.90
18779;DHT22;9518;51.720;14.384;2022-12-29T13:05:08;13.30;99.90
18779;DHT22;9518;51.720;14.384;2022-12-29T13:07:44;13.30;99.90
18779;DHT22;9518;51.720;14.384;2022-12-29T13:10:31;13.30;99.90
18779;DHT22;9518;51.720;14.384;2022-12-29T13:13:19;13.30;99.90
18779;DHT22;9518;51.720;14.384;2022-12-29T13:15:55;13.30;99.90
18779;DHT22;9518;51.720;14.384;2022-12-29T13:18:29;13.20;99.90
18779;DHT22;9518;51.720;14.384;2022-12-29T13:21:05;13.20;99.90
18779;DHT22;9518;51.720;14.384;2022-12-29T13:23:40;13.10;99.90
18779;DHT22;9518;51.720;14.384;2022-12-29T13:26:16;13.20;99.90
18779;DHT22;9518;51.720;14.384;2022-12-29T13:28:53;13.20;99.90
18779;DHT22;9518;51.720;14.384;2022-12-29T13:31:32;13.10;99.90
18779;DHT22;9518;51.720;14.384;2022-12-29T13:34:09;13.20;99.90
18779;DHT22;9518;51.720;14.384;2022-12-29T13:36:42;13.20;99.90
18779;DHT22;9518;51.720;14.384;2022-12-29T13:39:15;13.10;99.90
18779;DHT22;9518;51.720;14.384;2022-12-29T13:41:48;13.10;99.90
18779;DHT22;9518;51.720;14.384;2022-12-29T13:44:20;13.10;99.90
18779;DHT22;9518;51.720;14.384;2022-12-29T13:46:49;13.00;99.90
18779;DHT22;9518;51.720;14.384;2022-12-29T13:49:18;13.00;99.90
18779;DHT22;9518;51.720;14.384;2022-12-29T13:51:48;13.10;99.90
18779;DHT22;9518;51.720;14.384;2022-12-29T13:54:29;13.00;99.90
18779;DHT22;9518;51.720;14.384;2022-12-29T13:57:07;12.90;99.90
18779;DHT22;9518;51.720;14.384;2022-12-29T13:59:41;12.90;99.90
18779;DHT22;9518;51.720;14.384;2022-12-29T14:02:18;12.90;99.90
18779;DHT22;9518;51.720;14.384;2022-12-29T14:04:58;12.80;99.90
18779;DHT22;9518;51.720;14.384;2022-12-29T14:07:26;12.70;99.90
18779;DHT22;9518;51.720;14.384;2022-12-29T14:09:55;12.80;99.90
18779;DHT22;9518;51.720;14.384;2022-12-29T14:12:30;12.80;99.90
18779;DHT22;9518;51.720;14.384;2022-12-29T14:15:18;12.60;99.90
18779;DHT22;9518;51.720;14.384;2022-12-29T14:18:02;12.60;99.90
18779;DHT22;9518;51.720;14.384;2022-12-29T14:20:30;12.50;99.90
18779;DHT22;9518;51.720;14.384;2022-12-29T14:22:59;12.50;99.90
18779;DHT22;9518;51.720;14.384;2022-12-29T14:25:52;12.40;99.90
18779;DHT22;9518;51.720;14.384;2022-12-29T14:28:25;12.50;99.90
18779;DHT22;9518;51.720;14.384;2022-12-29T14:30:54;12.50;99.90
18779;DHT22;9518;51.720;14.384;2022-12-29T14:33:22;12.40;99.90
18779;DHT22;9518;51.720;14.384;2022-12-29T14:35:52;12.30;99.90
18779;DHT22;9518;51.720;14.384;2022-12-29T14:38:28;12.30;99.90
18779;DHT22;9518;51.720;14.384;2022-12-29T14:41:18;12.30;99.90
18779;DHT22;9518;51.720;14.384;2022-12-29T14:44:00;12.30;99.90
18779;DHT22;9518;51.720;14.384;2022-12-29T14:46:43;12.30;99.90
18779;DHT22;9518;51.720;14.384;2022-12-29T14:49:16;12.30;99.90
18779;DHT22;9518;51.720;14.384;2022-12-29T14:51:45;12.30;99.90
18779;DHT22;9518;51.720;14.384;2022-12-29T14:54:42;12.30;99.90
18779;DHT22;9518;51.720;14.384;2022-12-29T14:57:18;12.20;99.90
18779;DHT22;9518;51.720;14.384;2022-12-29T14:59:48;12.30;99.90
18779;DHT22;9518;51.720;14.384;2022-12-29T15:02:22;12.40;99.90
18779;DHT22;9518;51.720;14.384;2022-12-29T15:04:51;12.30;99.90
18779;DHT22;9518;51.720;14.384;2022-12-29T15:07:20;12.20;99.90
18779;DHT22;9518;51.720;14.384;2022-12-29T15:09:52;12.20;99.90
18779;DHT22;9518;51.720;14.384;2022-12-29T15:12:27;12.20;99.90
18779;DHT22;9518;51.720;14.384;2022-12-29T15:14:59;12.20;99.90
18779;DHT22;9518;51.720;14.384;2022-12-29T15:17:29;12.10;99.90
18779;DHT22;9518;51.720;14.384;2022-12-29T15:19:58;12.20;99.90
18779;DHT22;9518;51.720;14.384;2022-12-29T15:22:25;12.30;99.90
18779;DHT22;9518;51.720;14.384;2022-12-29T15:24:54;12.30;99.90
18779;DHT22;9518;51.720;14.384;2022-12-29T15:27:23;12.20;99.90
18779;DHT22;9518;51.720;14.384;2022-12-29T15:29:58;12.30;99.90
18779;DHT22;9518;51.720;14.384;2022-12-29T15:32:28;12.20;99.90
18779;DHT22;9518;51.720;14.384;2022-12-29T15:34:57;12.10;99.90
18779;DHT22;9518;51.720;14.384;2022-12-29T15:37:27;12.10;99.90
18779;DHT22;9518;51.720;14.384;2022-12-29T15:39:55;12.10;99.90
18779;DHT22;9518;51.720;14.384;2022-12-29T15:42:34;12.00;99.90
18779;DHT22;9518;51.720;14.384;2022-12-29T15:45:07;12.10;99.90
18779;DHT22;9518;51.720;14.384;2022-12-29T15:47:38;12.10;99.90
18779;DHT22;9518;51.720;14.384;2022-12-29T15:50:09;12.10;99.90
18779;DHT22;9518;51.720;14.384;2022-12-29T15:52:40;12.10;99.90
18779;DHT22;9518;51.720;14.384;2022-12-29T15:55:19;12.00;99.90
18779;DHT22;9518;51.720;14.384;2022-12-29T15:57:47;12.00;99.90
18779;DHT22;9518;51.720;14.384;2022-12-29T16:00:29;12.00;99.90
18779;DHT22;9518;51.720;14.384;2022-12-29T16:02:59;12.00;99.90
18779;DHT22;9518;51.720;14.384;2022-12-29T16:05:31;12.00;99.90
18779;DHT22;9518;51.720;14.384;2022-12-29T16:07:59;12.00;99.90
18779;DHT22;9518;51.720;14.384;2022-12-29T16:10:30;12.00;99.90
18779;DHT22;9518;51.720;14.384;2022-12-29T16:13:04;11.90;99.90
18779;DHT22;9518;51.720;14.384;2022-12-29T16:15:33;11.80;99.90
18779;DHT22;9518;51.720;14.384;2022-12-29T16:18:01;11.80;99.90
18779;DHT22;9518;51.720;14.384;2022-12-29T16:20:36;11.70;1.00
18779;DHT22;9518;51.720;14.384;2022-12-29T16:23:04;11.80;1.00